sensor_id;sensor_type;location;lat;lon;timestamp;P1;durP1;ratioP1;P2;durP2;ratioP2
23148;SDS011;11743;51.228;22.498;2022-09-17T00:00:08;8.40;;;5.15;;
23148;SDS011;11743;51.228;22.498;2022-09-17T00:00:30;6.45;;;5.25;;
23148;SDS011;11743;51.228;22.498;2022-09-17T00:00:54;5.93;;;5.00;;
23148;SDS011;11743;51.228;22.498;2022-09-17T00:01:17;7.15;;;5.60;;
23148;SDS011;11743;51.228;22.498;2022-09-17T00:01:44;7.63;;;5.38;;
23148;SDS011;11743;51.228;22.498;2022-09-17T00:02:06;6.93;;;5.00;;
23148;SDS011;11743;51.228;22.498;2022-09-17T00:02:28;8.60;;;5.47;;
23148;SDS011;11743;51.228;22.498;2022-09-17T00:02:51;9.32;;;5.75;;
23148;SDS011;11743;51.228;22.498;2022-09-17T00:03:16;6.93;;;4.97;;
23148;SDS011;11743;51.228;22.498;2022-09-17T00:03:38;7.28;;;5.55;;
23148;SDS011;11743;51.228;22.498;2022-09-17T00:04:02;8.02;;;5.65;;
23148;SDS011;11743;51.228;22.498;2022-09-17T00:04:24;7.85;;;5.30;;
23148;SDS011;11743;51.228;22.498;2022-09-17T00:04:47;6.40;;;5.05;;
23148;SDS011;11743;51.228;22.498;2022-09-17T00:05:09;9.32;;;5.60;;
23148;SDS011;11743;51.228;22.498;2022-09-17T00:05:31;9.55;;;5.35;;
23148;SDS011;11743;51.228;22.498;2022-09-17T00:06:25;8.07;;;5.65;;
23148;SDS011;11743;51.228;22.498;2022-09-17T00:06:47;8.30;;;5.18;;
23148;SDS011;11743;51.228;22.498;2022-09-17T00:07:09;6.90;;;5.05;;
23148;SDS011;11743;51.228;22.498;2022-09-17T00:07:31;7.40;;;5.13;;
23148;SDS011;11743;51.228;22.498;2022-09-17T00:07:53;7.65;;;5.38;;
23148;SDS011;11743;51.228;22.498;2022-09-17T00:08:14;7.18;;;5.25;;
23148;SDS011;11743;51.228;22.498;2022-09-17T00:08:38;6.90;;;5.05;;
23148;SDS011;11743;51.228;22.498;2022-09-17T00:09:02;6.13;;;5.10;;
23148;SDS011;11743;51.228;22.498;2022-09-17T00:09:25;6.40;;;5.07;;
23148;SDS011;11743;51.228;22.498;2022-09-17T00:09:48;5.82;;;5.03;;
23148;SDS011;11743;51.228;22.498;2022-09-17T00:10:10;6.70;;;5.15;;
23148;SDS011;11743;51.228;22.498;2022-09-17T00:10:37;8.38;;;5.30;;
23148;SDS011;11743;51.228;22.498;2022-09-17T00:11:05;8.52;;;5.05;;
23148;SDS011;11743;51.228;22.498;2022-09-17T00:11:33;7.50;;;5.10;;
23148;SDS011;11743;51.228;22.498;2022-09-17T00:11:57;7.10;;;5.00;;
23148;SDS011;11743;51.228;22.498;2022-09-17T00:12:19;6.65;;;5.20;;
23148;SDS011;11743;51.228;22.498;2022-09-17T00:12:40;7.53;;;5.43;;
23148;SDS011;11743;51.228;22.498;2022-09-17T00:13:03;7.13;;;5.03;;
23148;SDS011;11743;51.228;22.498;2022-09-17T00:13:25;6.70;;;5.18;;
23148;SDS011;11743;51.228;22.498;2022-09-17T00:13:47;7.97;;;5.13;;
23148;SDS011;11743;51.228;22.498;2022-09-17T00:14:14;7.85;;;5.45;;
23148;SDS011;11743;51.228;22.498;2022-09-17T00:14:38;6.90;;;4.80;;
23148;SDS011;11743;51.228;22.498;2022-09-17T00:15:00;7.03;;;4.97;;
23148;SDS011;11743;51.228;22.498;2022-09-17T00:15:22;6.82;;;5.13;;
23148;SDS011;11743;51.228;22.498;2022-09-17T00:15:44;7.68;;;5.18;;
23148;SDS011;11743;51.228;22.498;2022-09-17T00:16:07;8.52;;;4.95;;
23148;SDS011;11743;51.228;22.498;2022-09-17T00:16:34;6.80;;;4.80;;
23148;SDS011;11743;51.228;22.498;2022-09-17T00:16:58;5.47;;;4.60;;
23148;SDS011;11743;51.228;22.498;2022-09-17T00:17:22;5.85;;;4.90;;
23148;SDS011;11743;51.228;22.498;2022-09-17T00:17:44;6.65;;;4.70;;
23148;SDS011;11743;51.228;22.498;2022-09-17T00:18:05;5.28;;;4.60;;
23148;SDS011;11743;51.228;22.498;2022-09-17T00:18:27;6.40;;;4.53;;
23148;SDS011;11743;51.228;22.498;2022-09-17T00:18:49;7.07;;;4.70;;
23148;SDS011;11743;51.228;22.498;2022-09-17T00:19:15;6.60;;;4.68;;
23148;SDS011;11743;51.228;22.498;2022-09-17T00:19:39;6.88;;;5.00;;
23148;SDS011;11743;51.228;22.498;2022-09-17T00:20:02;6.68;;;4.75;;
23148;SDS011;11743;51.228;22.498;2022-09-17T00:20:25;6.93;;;4.63;;
23148;SDS011;11743;51.228;22.498;2022-09-17T00:20:47;5.65;;;4.43;;
23148;SDS011;11743;51.228;22.498;2022-09-17T00:21:14;7.20;;;4.82;;
23148;SDS011;11743;51.228;22.498;2022-09-17T00:21:38;6.05;;;4.50;;
23148;SDS011;11743;51.228;22.498;2022-09-17T00:22:01;4.90;;;4.40;;
23148;SDS011;11743;51.228;22.498;2022-09-17T00:22:22;6.13;;;4.70;;
23148;SDS011;11743;51.228;22.498;2022-09-17T00:22:44;6.78;;;4.60;;
23148;SDS011;11743;51.228;22.498;2022-09-17T00:23:06;7.60;;;4.70;;
23148;SDS011;11743;51.228;22.498;2022-09-17T00:23:29;6.57;;;5.00;;
23148;SDS011;11743;51.228;22.498;2022-09-17T00:23:53;6.63;;;4.35;;
23148;SDS011;11743;51.228;22.498;2022-09-17T00:24:16;7.07;;;4.60;;
23148;SDS011;11743;51.228;22.498;2022-09-17T00:24:39;8.02;;;5.13;;
23148;SDS011;11743;51.228;22.498;2022-09-17T00:25:01;5.97;;;4.60;;
23148;SDS011;11743;51.228;22.498;2022-09-17T00:25:24;6.20;;;4.93;;
23148;SDS011;11743;51.228;22.498;2022-09-17T00:25:46;5.70;;;4.47;;
23148;SDS011;11743;51.228;22.498;2022-09-17T00:26:08;6.82;;;4.32;;
23148;SDS011;11743;51.228;22.498;2022-09-17T00:26:30;6.32;;;4.68;;
23148;SDS011;11743;51.228;22.498;2022-09-17T00:26:53;7.05;;;4.55;;
23148;SDS011;11743;51.228;22.498;2022-09-17T00:27:14;6.70;;;4.53;;
23148;SDS011;11743;51.228;22.498;2022-09-17T00:27:39;6.03;;;4.30;;
23148;SDS011;11743;51.228;22.498;2022-09-17T00:28:01;6.40;;;4.30;;
23148;SDS011;11743;51.228;22.498;2022-09-17T00:28:22;7.30;;;4.28;;
23148;SDS011;11743;51.228;22.498;2022-09-17T00:28:47;5.68;;;4.40;;
23148;SDS011;11743;51.228;22.498;2022-09-17T00:29:13;4.97;;;4.40;;
23148;SDS011;11743;51.228;22.498;2022-09-17T00:29:35;5.40;;;4.22;;
23148;SDS011;11743;51.228;22.498;2022-09-17T00:29:57;5.25;;;4.00;;
23148;SDS011;11743;51.228;22.498;2022-09-17T00:30:19;5.18;;;4.28;;
23148;SDS011;11743;51.228;22.498;2022-09-17T00:30:44;5.70;;;4.32;;
23148;SDS011;11743;51.228;22.498;2022-09-17T00:31:07;6.32;;;4.00;;
23148;SDS011;11743;51.228;22.498;2022-09-17T00:31:29;6.97;;;4.13;;
23148;SDS011;11743;51.228;22.498;2022-09-17T00:31:52;8.63;;;4.43;;
23148;SDS011;11743;51.228;22.498;2022-09-17T00:32:13;5.97;;;4.57;;
23148;SDS011;11743;51.228;22.498;2022-09-17T00:32:35;6.72;;;4.63;;
23148;SDS011;11743;51.228;22.498;2022-09-17T00:33:06;5.63;;;4.25;;
23148;SDS011;11743;51.228;22.498;2022-09-17T00:33:29;5.57;;;4.20;;
23148;SDS011;11743;51.228;22.498;2022-09-17T00:33:51;5.05;;;3.90;;
23148;SDS011;11743;51.228;22.498;2022-09-17T00:34:13;6.07;;;4.18;;
23148;SDS011;11743;51.228;22.498;2022-09-17T00:34:35;6.45;;;4.50;;
23148;SDS011;11743;51.228;22.498;2022-09-17T00:34:58;6.75;;;4.35;;
23148;SDS011;11743;51.228;22.498;2022-09-17T00:35:20;5.78;;;4.30;;
23148;SDS011;11743;51.228;22.498;2022-09-17T00:35:42;5.07;;;4.25;;
23148;SDS011;11743;51.228;22.498;2022-09-17T00:36:05;4.80;;;4.20;;
23148;SDS011;11743;51.228;22.498;2022-09-17T00:36:27;5.20;;;3.92;;
23148;SDS011;11743;51.228;22.498;2022-09-17T00:36:49;5.28;;;3.70;;
23148;SDS011;11743;51.228;22.498;2022-09-17T00:37:11;6.43;;;4.28;;
23148;SDS011;11743;51.228;22.498;2022-09-17T00:37:32;4.93;;;4.18;;
23148;SDS011;11743;51.228;22.498;2022-09-17T00:37:54;9.02;;;4.15;;
23148;SDS011;11743;51.228;22.498;2022-09-17T00:38:19;6.55;;;4.00;;
23148;SDS011;11743;51.228;22.498;2022-09-17T00:38:41;5.57;;;4.10;;
23148;SDS011;11743;51.228;22.498;2022-09-17T00:39:04;4.65;;;4.00;;
23148;SDS011;11743;51.228;22.498;2022-09-17T00:39:27;5.25;;;3.90;;
23148;SDS011;11743;51.228;22.498;2022-09-17T00:39:49;6.05;;;4.38;;
23148;SDS011;11743;51.228;22.498;2022-09-17T00:40:11;6.00;;;4.20;;
23148;SDS011;11743;51.228;22.498;2022-09-17T00:40:33;5.80;;;3.88;;
23148;SDS011;11743;51.228;22.498;2022-09-17T00:40:55;5.32;;;4.22;;
23148;SDS011;11743;51.228;22.498;2022-09-17T00:41:17;5.75;;;4.15;;
23148;SDS011;11743;51.228;22.498;2022-09-17T00:41:40;6.80;;;4.00;;
23148;SDS011;11743;51.228;22.498;2022-09-17T00:42:02;6.80;;;3.90;;
23148;SDS011;11743;51.228;22.498;2022-09-17T00:42:32;6.07;;;4.15;;
23148;SDS011;11743;51.228;22.498;2022-09-17T00:42:56;6.05;;;3.85;;
23148;SDS011;11743;51.228;22.498;2022-09-17T00:45:16;5.90;;;4.32;;
23148;SDS011;11743;51.228;22.498;2022-09-17T00:45:39;5.03;;;3.80;;
23148;SDS011;11743;51.228;22.498;2022-09-17T00:46:01;5.63;;;3.92;;
23148;SDS011;11743;51.228;22.498;2022-09-17T00:46:58;5.85;;;4.15;;
23148;SDS011;11743;51.228;22.498;2022-09-17T00:47:59;6.07;;;4.00;;
23148;SDS011;11743;51.228;22.498;2022-09-17T00:48:25;6.82;;;3.95;;
23148;SDS011;11743;51.228;22.498;2022-09-17T00:48:47;5.13;;;3.85;;
23148;SDS011;11743;51.228;22.498;2022-09-17T00:49:28;4.43;;;3.63;;
23148;SDS011;11743;51.228;22.498;2022-09-17T00:49:52;4.75;;;4.00;;
23148;SDS011;11743;51.228;22.498;2022-09-17T00:50:24;5.22;;;3.83;;
23148;SDS011;11743;51.228;22.498;2022-09-17T00:51:01;5.43;;;4.00;;
23148;SDS011;11743;51.228;22.498;2022-09-17T00:51:30;6.43;;;4.18;;
23148;SDS011;11743;51.228;22.498;2022-09-17T00:51:57;6.88;;;4.43;;
23148;SDS011;11743;51.228;22.498;2022-09-17T00:52:28;5.47;;;4.00;;
23148;SDS011;11743;51.228;22.498;2022-09-17T00:53:00;4.72;;;3.90;;
23148;SDS011;11743;51.228;22.498;2022-09-17T00:53:26;5.68;;;4.25;;
23148;SDS011;11743;51.228;22.498;2022-09-17T00:53:49;6.70;;;4.10;;
23148;SDS011;11743;51.228;22.498;2022-09-17T00:54:11;7.28;;;4.45;;
23148;SDS011;11743;51.228;22.498;2022-09-17T00:54:34;7.05;;;4.38;;
23148;SDS011;11743;51.228;22.498;2022-09-17T00:55:46;8.75;;;4.65;;
23148;SDS011;11743;51.228;22.498;2022-09-17T00:56:08;5.70;;;4.10;;
23148;SDS011;11743;51.228;22.498;2022-09-17T00:56:36;5.65;;;4.13;;
23148;SDS011;11743;51.228;22.498;2022-09-17T00:57:03;4.97;;;4.20;;
23148;SDS011;11743;51.228;22.498;2022-09-17T00:57:25;6.63;;;4.30;;
23148;SDS011;11743;51.228;22.498;2022-09-17T00:57:49;6.45;;;4.18;;
23148;SDS011;11743;51.228;22.498;2022-09-17T00:58:14;5.90;;;4.10;;
23148;SDS011;11743;51.228;22.498;2022-09-17T00:58:38;5.05;;;3.83;;
23148;SDS011;11743;51.228;22.498;2022-09-17T00:59:01;6.90;;;4.07;;
23148;SDS011;11743;51.228;22.498;2022-09-17T00:59:24;6.20;;;4.18;;
23148;SDS011;11743;51.228;22.498;2022-09-17T00:59:49;7.80;;;4.10;;
23148;SDS011;11743;51.228;22.498;2022-09-17T01:00:12;7.55;;;4.40;;
23148;SDS011;11743;51.228;22.498;2022-09-17T01:00:37;7.00;;;4.53;;
23148;SDS011;11743;51.228;22.498;2022-09-17T01:01:00;7.40;;;4.45;;
23148;SDS011;11743;51.228;22.498;2022-09-17T01:01:22;5.35;;;4.38;;
23148;SDS011;11743;51.228;22.498;2022-09-17T01:01:44;6.13;;;4.20;;
23148;SDS011;11743;51.228;22.498;2022-09-17T01:02:06;5.03;;;4.07;;
23148;SDS011;11743;51.228;22.498;2022-09-17T01:02:29;5.57;;;4.40;;
23148;SDS011;11743;51.228;22.498;2022-09-17T01:02:53;5.28;;;4.20;;
23148;SDS011;11743;51.228;22.498;2022-09-17T01:03:15;6.78;;;4.40;;
23148;SDS011;11743;51.228;22.498;2022-09-17T01:03:37;6.53;;;4.30;;
23148;SDS011;11743;51.228;22.498;2022-09-17T01:04:02;6.75;;;4.22;;
23148;SDS011;11743;51.228;22.498;2022-09-17T01:04:24;4.47;;;3.97;;
23148;SDS011;11743;51.228;22.498;2022-09-17T01:04:47;6.25;;;4.10;;
23148;SDS011;11743;51.228;22.498;2022-09-17T01:05:10;7.05;;;4.22;;
23148;SDS011;11743;51.228;22.498;2022-09-17T01:08:21;4.95;;;4.20;;
23148;SDS011;11743;51.228;22.498;2022-09-17T01:09:19;7.35;;;4.60;;
23148;SDS011;11743;51.228;22.498;2022-09-17T01:13:45;5.47;;;4.28;;
23148;SDS011;11743;51.228;22.498;2022-09-17T01:16:09;6.05;;;4.20;;
23148;SDS011;11743;51.228;22.498;2022-09-17T01:18:44;4.53;;;3.90;;
23148;SDS011;11743;51.228;22.498;2022-09-17T01:22:06;6.78;;;4.20;;
23148;SDS011;11743;51.228;22.498;2022-09-17T01:22:07;6.13;;;4.40;;
23148;SDS011;11743;51.228;22.498;2022-09-17T01:24:43;7.13;;;4.40;;
23148;SDS011;11743;51.228;22.498;2022-09-17T01:28:11;8.43;;;4.65;;
23148;SDS011;11743;51.228;22.498;2022-09-17T01:28:43;5.90;;;4.32;;
23148;SDS011;11743;51.228;22.498;2022-09-17T01:29:49;4.97;;;4.35;;
23148;SDS011;11743;51.228;22.498;2022-09-17T01:32:11;5.50;;;4.22;;
23148;SDS011;11743;51.228;22.498;2022-09-17T01:32:37;6.25;;;4.57;;
23148;SDS011;11743;51.228;22.498;2022-09-17T01:34:29;5.70;;;4.22;;
23148;SDS011;11743;51.228;22.498;2022-09-17T01:35:10;5.15;;;4.25;;
23148;SDS011;11743;51.228;22.498;2022-09-17T01:37:33;5.25;;;4.32;;
23148;SDS011;11743;51.228;22.498;2022-09-17T01:39:32;7.15;;;4.78;;
23148;SDS011;11743;51.228;22.498;2022-09-17T01:39:50;7.55;;;4.90;;
23148;SDS011;11743;51.228;22.498;2022-09-17T01:42:42;6.55;;;4.93;;
23148;SDS011;11743;51.228;22.498;2022-09-17T01:43:20;6.10;;;4.43;;
23148;SDS011;11743;51.228;22.498;2022-09-17T01:43:52;6.43;;;4.60;;
23148;SDS011;11743;51.228;22.498;2022-09-17T01:44:29;5.47;;;4.60;;
23148;SDS011;11743;51.228;22.498;2022-09-17T01:45:26;5.47;;;4.40;;
23148;SDS011;11743;51.228;22.498;2022-09-17T01:45:51;5.95;;;4.60;;
23148;SDS011;11743;51.228;22.498;2022-09-17T01:46:39;6.82;;;5.00;;
23148;SDS011;11743;51.228;22.498;2022-09-17T01:47:25;8.02;;;4.70;;
23148;SDS011;11743;51.228;22.498;2022-09-17T01:48:39;5.65;;;4.50;;
23148;SDS011;11743;51.228;22.498;2022-09-17T01:49:04;5.63;;;4.20;;
23148;SDS011;11743;51.228;22.498;2022-09-17T01:49:27;6.28;;;4.78;;
23148;SDS011;11743;51.228;22.498;2022-09-17T01:49:54;6.35;;;4.65;;
23148;SDS011;11743;51.228;22.498;2022-09-17T01:50:24;5.93;;;4.60;;
23148;SDS011;11743;51.228;22.498;2022-09-17T01:51:03;6.32;;;4.93;;
23148;SDS011;11743;51.228;22.498;2022-09-17T01:51:40;6.85;;;4.90;;
23148;SDS011;11743;51.228;22.498;2022-09-17T01:52:08;6.75;;;4.85;;
23148;SDS011;11743;51.228;22.498;2022-09-17T01:52:33;8.27;;;4.85;;
23148;SDS011;11743;51.228;22.498;2022-09-17T01:52:58;6.13;;;4.70;;
23148;SDS011;11743;51.228;22.498;2022-09-17T01:53:24;7.10;;;4.90;;
23148;SDS011;11743;51.228;22.498;2022-09-17T01:54:24;6.70;;;4.63;;
23148;SDS011;11743;51.228;22.498;2022-09-17T01:55:07;7.70;;;4.90;;
23148;SDS011;11743;51.228;22.498;2022-09-17T01:55:34;6.82;;;4.97;;
23148;SDS011;11743;51.228;22.498;2022-09-17T01:56:01;6.82;;;5.00;;
23148;SDS011;11743;51.228;22.498;2022-09-17T01:56:27;5.80;;;4.60;;
23148;SDS011;11743;51.228;22.498;2022-09-17T01:57:01;6.90;;;4.70;;
23148;SDS011;11743;51.228;22.498;2022-09-17T01:57:42;8.23;;;4.60;;
23148;SDS011;11743;51.228;22.498;2022-09-17T01:58:15;6.10;;;4.50;;
23148;SDS011;11743;51.228;22.498;2022-09-17T01:58:43;5.95;;;4.60;;
23148;SDS011;11743;51.228;22.498;2022-09-17T01:59:13;8.27;;;4.95;;
23148;SDS011;11743;51.228;22.498;2022-09-17T01:59:51;7.03;;;4.55;;
23148;SDS011;11743;51.228;22.498;2022-09-17T02:00:22;6.32;;;4.43;;
23148;SDS011;11743;51.228;22.498;2022-09-17T02:00:49;6.22;;;4.78;;
23148;SDS011;11743;51.228;22.498;2022-09-17T02:01:16;6.60;;;4.90;;
23148;SDS011;11743;51.228;22.498;2022-09-17T02:01:43;5.63;;;4.75;;
23148;SDS011;11743;51.228;22.498;2022-09-17T02:02:15;6.47;;;4.43;;
23148;SDS011;11743;51.228;22.498;2022-09-17T02:02:45;6.25;;;4.38;;
23148;SDS011;11743;51.228;22.498;2022-09-17T02:03:20;6.38;;;4.45;;
23148;SDS011;11743;51.228;22.498;2022-09-17T02:04:02;5.65;;;4.50;;
23148;SDS011;11743;51.228;22.498;2022-09-17T02:04:33;6.50;;;4.60;;
23148;SDS011;11743;51.228;22.498;2022-09-17T02:05:04;7.20;;;4.60;;
23148;SDS011;11743;51.228;22.498;2022-09-17T02:05:52;7.53;;;5.13;;
23148;SDS011;11743;51.228;22.498;2022-09-17T02:06:16;6.32;;;4.63;;
23148;SDS011;11743;51.228;22.498;2022-09-17T02:06:44;5.72;;;4.80;;
23148;SDS011;11743;51.228;22.498;2022-09-17T02:07:13;6.30;;;4.97;;
23148;SDS011;11743;51.228;22.498;2022-09-17T02:07:43;6.13;;;4.60;;
23148;SDS011;11743;51.228;22.498;2022-09-17T02:08:13;5.15;;;4.38;;
23148;SDS011;11743;51.228;22.498;2022-09-17T02:08:46;7.80;;;4.60;;
23148;SDS011;11743;51.228;22.498;2022-09-17T02:09:18;6.70;;;4.63;;
23148;SDS011;11743;51.228;22.498;2022-09-17T02:09:47;5.63;;;4.50;;
23148;SDS011;11743;51.228;22.498;2022-09-17T02:10:16;7.03;;;4.57;;
23148;SDS011;11743;51.228;22.498;2022-09-17T02:10:42;6.82;;;4.47;;
23148;SDS011;11743;51.228;22.498;2022-09-17T02:11:16;7.57;;;4.72;;
23148;SDS011;11743;51.228;22.498;2022-09-17T02:11:39;6.85;;;5.07;;
23148;SDS011;11743;51.228;22.498;2022-09-17T02:12:14;6.30;;;4.82;;
23148;SDS011;11743;51.228;22.498;2022-09-17T02:12:45;8.23;;;5.03;;
23148;SDS011;11743;51.228;22.498;2022-09-17T02:13:14;5.25;;;4.57;;
23148;SDS011;11743;51.228;22.498;2022-09-17T02:13:46;7.80;;;4.95;;
23148;SDS011;11743;51.228;22.498;2022-09-17T02:14:10;6.72;;;5.03;;
23148;SDS011;11743;51.228;22.498;2022-09-17T02:14:38;7.60;;;4.90;;
23148;SDS011;11743;51.228;22.498;2022-09-17T02:15:06;7.78;;;5.25;;
23148;SDS011;11743;51.228;22.498;2022-09-17T02:15:39;7.72;;;4.88;;
23148;SDS011;11743;51.228;22.498;2022-09-17T02:16:08;6.43;;;4.90;;
23148;SDS011;11743;51.228;22.498;2022-09-17T02:16:34;7.72;;;5.07;;
23148;SDS011;11743;51.228;22.498;2022-09-17T02:17:00;7.20;;;4.80;;
23148;SDS011;11743;51.228;22.498;2022-09-17T02:17:34;7.47;;;5.00;;
23148;SDS011;11743;51.228;22.498;2022-09-17T02:19:28;7.68;;;5.25;;
23148;SDS011;11743;51.228;22.498;2022-09-17T02:20:02;8.52;;;5.38;;
23148;SDS011;11743;51.228;22.498;2022-09-17T02:20:27;5.90;;;4.80;;
23148;SDS011;11743;51.228;22.498;2022-09-17T02:22:01;6.85;;;4.85;;
23148;SDS011;11743;51.228;22.498;2022-09-17T02:22:48;6.75;;;5.00;;
23148;SDS011;11743;51.228;22.498;2022-09-17T02:23:21;6.35;;;5.13;;
23148;SDS011;11743;51.228;22.498;2022-09-17T02:23:51;6.80;;;5.13;;
23148;SDS011;11743;51.228;22.498;2022-09-17T02:24:25;6.95;;;4.97;;
23148;SDS011;11743;51.228;22.498;2022-09-17T02:25:41;7.13;;;5.13;;
23148;SDS011;11743;51.228;22.498;2022-09-17T02:26:29;6.60;;;4.80;;
23148;SDS011;11743;51.228;22.498;2022-09-17T02:27:36;8.07;;;5.05;;
23148;SDS011;11743;51.228;22.498;2022-09-17T02:29:10;6.55;;;4.90;;
23148;SDS011;11743;51.228;22.498;2022-09-17T02:29:40;6.00;;;5.15;;
23148;SDS011;11743;51.228;22.498;2022-09-17T02:30:04;5.80;;;4.80;;
23148;SDS011;11743;51.228;22.498;2022-09-17T02:30:26;7.15;;;5.28;;
23148;SDS011;11743;51.228;22.498;2022-09-17T02:30:48;6.68;;;5.00;;
23148;SDS011;11743;51.228;22.498;2022-09-17T02:31:10;6.93;;;5.00;;
23148;SDS011;11743;51.228;22.498;2022-09-17T02:31:33;7.35;;;5.25;;
23148;SDS011;11743;51.228;22.498;2022-09-17T02:31:55;7.10;;;5.38;;
23148;SDS011;11743;51.228;22.498;2022-09-17T02:32:17;7.65;;;5.03;;
23148;SDS011;11743;51.228;22.498;2022-09-17T02:32:39;6.60;;;4.85;;
23148;SDS011;11743;51.228;22.498;2022-09-17T02:33:03;8.32;;;5.35;;
23148;SDS011;11743;51.228;22.498;2022-09-17T02:33:31;6.80;;;5.20;;
23148;SDS011;11743;51.228;22.498;2022-09-17T02:33:57;8.15;;;5.35;;
23148;SDS011;11743;51.228;22.498;2022-09-17T02:34:21;8.93;;;5.60;;
23148;SDS011;11743;51.228;22.498;2022-09-17T02:34:46;11.57;;;5.70;;
23148;SDS011;11743;51.228;22.498;2022-09-17T02:35:09;9.63;;;5.38;;
23148;SDS011;11743;51.228;22.498;2022-09-17T02:35:34;7.70;;;5.28;;
23148;SDS011;11743;51.228;22.498;2022-09-17T02:35:58;7.35;;;5.55;;
23148;SDS011;11743;51.228;22.498;2022-09-17T02:36:19;7.63;;;5.72;;
23148;SDS011;11743;51.228;22.498;2022-09-17T02:36:42;7.20;;;5.10;;
23148;SDS011;11743;51.228;22.498;2022-09-17T02:37:04;6.25;;;4.88;;
23148;SDS011;11743;51.228;22.498;2022-09-17T02:37:27;7.95;;;5.18;;
23148;SDS011;11743;51.228;22.498;2022-09-17T02:37:49;8.23;;;5.47;;
23148;SDS011;11743;51.228;22.498;2022-09-17T02:38:19;6.60;;;5.32;;
23148;SDS011;11743;51.228;22.498;2022-09-17T02:38:43;8.45;;;5.88;;
23148;SDS011;11743;51.228;22.498;2022-09-17T02:39:07;8.90;;;5.47;;
23148;SDS011;11743;51.228;22.498;2022-09-17T02:39:29;9.18;;;5.53;;
23148;SDS011;11743;51.228;22.498;2022-09-17T02:39:53;8.38;;;5.93;;
23148;SDS011;11743;51.228;22.498;2022-09-17T02:40:16;7.53;;;5.55;;
23148;SDS011;11743;51.228;22.498;2022-09-17T02:40:46;9.35;;;5.78;;
23148;SDS011;11743;51.228;22.498;2022-09-17T02:41:17;7.03;;;5.50;;
23148;SDS011;11743;51.228;22.498;2022-09-17T02:43:46;7.43;;;5.60;;
23148;SDS011;11743;51.228;22.498;2022-09-17T02:44:27;7.75;;;5.50;;
23148;SDS011;11743;51.228;22.498;2022-09-17T02:50:54;10.93;;;6.18;;
23148;SDS011;11743;51.228;22.498;2022-09-17T02:57:49;8.00;;;5.65;;
23148;SDS011;11743;51.228;22.498;2022-09-17T02:58:38;8.02;;;5.45;;
23148;SDS011;11743;51.228;22.498;2022-09-17T02:59:21;7.95;;;5.43;;
23148;SDS011;11743;51.228;22.498;2022-09-17T03:00:18;7.25;;;5.32;;
23148;SDS011;11743;51.228;22.498;2022-09-17T03:00:42;9.18;;;5.78;;
23148;SDS011;11743;51.228;22.498;2022-09-17T03:01:11;7.45;;;5.65;;
23148;SDS011;11743;51.228;22.498;2022-09-17T03:02:44;6.90;;;5.60;;
23148;SDS011;11743;51.228;22.498;2022-09-17T03:03:43;10.18;;;5.78;;
23148;SDS011;11743;51.228;22.498;2022-09-17T03:04:07;8.85;;;5.78;;
23148;SDS011;11743;51.228;22.498;2022-09-17T03:04:32;7.65;;;5.60;;
23148;SDS011;11743;51.228;22.498;2022-09-17T03:04:55;8.23;;;5.70;;
23148;SDS011;11743;51.228;22.498;2022-09-17T03:05:18;8.35;;;5.93;;
23148;SDS011;11743;51.228;22.498;2022-09-17T03:05:42;8.20;;;5.53;;
23148;SDS011;11743;51.228;22.498;2022-09-17T03:06:05;8.40;;;5.60;;
23148;SDS011;11743;51.228;22.498;2022-09-17T03:06:27;7.65;;;5.72;;
23148;SDS011;11743;51.228;22.498;2022-09-17T03:06:50;7.80;;;5.72;;
23148;SDS011;11743;51.228;22.498;2022-09-17T03:07:13;8.27;;;5.93;;
23148;SDS011;11743;51.228;22.498;2022-09-17T03:07:37;8.32;;;6.05;;
23148;SDS011;11743;51.228;22.498;2022-09-17T03:07:59;8.13;;;5.80;;
23148;SDS011;11743;51.228;22.498;2022-09-17T03:08:26;10.25;;;6.00;;
23148;SDS011;11743;51.228;22.498;2022-09-17T03:09:00;7.78;;;5.55;;
23148;SDS011;11743;51.228;22.498;2022-09-17T03:09:23;7.78;;;5.50;;
23148;SDS011;11743;51.228;22.498;2022-09-17T03:09:45;7.55;;;5.50;;
23148;SDS011;11743;51.228;22.498;2022-09-17T03:10:07;8.40;;;5.32;;
23148;SDS011;11743;51.228;22.498;2022-09-17T03:10:29;8.57;;;5.20;;
23148;SDS011;11743;51.228;22.498;2022-09-17T03:10:53;6.88;;;5.22;;
23148;SDS011;11743;51.228;22.498;2022-09-17T03:11:15;7.22;;;5.65;;
23148;SDS011;11743;51.228;22.498;2022-09-17T03:11:37;6.35;;;5.30;;
23148;SDS011;11743;51.228;22.498;2022-09-17T03:11:59;7.30;;;5.65;;
23148;SDS011;11743;51.228;22.498;2022-09-17T03:12:22;9.05;;;5.43;;
23148;SDS011;11743;51.228;22.498;2022-09-17T03:12:46;9.65;;;5.90;;
23148;SDS011;11743;51.228;22.498;2022-09-17T03:13:07;8.02;;;5.70;;
23148;SDS011;11743;51.228;22.498;2022-09-17T03:13:29;6.97;;;5.10;;
23148;SDS011;11743;51.228;22.498;2022-09-17T03:13:52;6.95;;;5.10;;
23148;SDS011;11743;51.228;22.498;2022-09-17T03:14:14;6.85;;;5.45;;
23148;SDS011;11743;51.228;22.498;2022-09-17T03:14:36;9.48;;;5.63;;
23148;SDS011;11743;51.228;22.498;2022-09-17T03:14:58;9.30;;;5.38;;
23148;SDS011;11743;51.228;22.498;2022-09-17T03:15:19;8.82;;;5.50;;
23148;SDS011;11743;51.228;22.498;2022-09-17T03:15:41;8.25;;;5.93;;
23148;SDS011;11743;51.228;22.498;2022-09-17T03:16:03;9.95;;;5.90;;
23148;SDS011;11743;51.228;22.498;2022-09-17T03:16:26;8.18;;;5.78;;
23148;SDS011;11743;51.228;22.498;2022-09-17T03:16:48;8.38;;;5.40;;
23148;SDS011;11743;51.228;22.498;2022-09-17T03:17:10;6.93;;;5.30;;
23148;SDS011;11743;51.228;22.498;2022-09-17T03:17:33;7.97;;;5.68;;
23148;SDS011;11743;51.228;22.498;2022-09-17T03:17:55;7.75;;;5.35;;
23148;SDS011;11743;51.228;22.498;2022-09-17T03:18:17;7.18;;;5.50;;
23148;SDS011;11743;51.228;22.498;2022-09-17T03:18:39;9.40;;;5.90;;
23148;SDS011;11743;51.228;22.498;2022-09-17T03:19:00;7.85;;;5.35;;
23148;SDS011;11743;51.228;22.498;2022-09-17T03:19:22;7.55;;;5.30;;
23148;SDS011;11743;51.228;22.498;2022-09-17T03:19:44;7.30;;;5.25;;
23148;SDS011;11743;51.228;22.498;2022-09-17T03:20:06;8.63;;;5.72;;
23148;SDS011;11743;51.228;22.498;2022-09-17T03:20:28;8.63;;;5.43;;
23148;SDS011;11743;51.228;22.498;2022-09-17T03:20:50;8.68;;;5.38;;
23148;SDS011;11743;51.228;22.498;2022-09-17T03:21:15;6.75;;;5.18;;
23148;SDS011;11743;51.228;22.498;2022-09-17T03:21:36;9.13;;;6.03;;
23148;SDS011;11743;51.228;22.498;2022-09-17T03:21:58;8.68;;;6.05;;
23148;SDS011;11743;51.228;22.498;2022-09-17T03:22:20;8.80;;;5.63;;
23148;SDS011;11743;51.228;22.498;2022-09-17T03:22:44;9.25;;;5.97;;
23148;SDS011;11743;51.228;22.498;2022-09-17T03:23:07;8.27;;;5.78;;
23148;SDS011;11743;51.228;22.498;2022-09-17T03:23:29;8.02;;;5.60;;
23148;SDS011;11743;51.228;22.498;2022-09-17T03:23:50;7.55;;;5.50;;
23148;SDS011;11743;51.228;22.498;2022-09-17T03:24:13;8.82;;;5.68;;
23148;SDS011;11743;51.228;22.498;2022-09-17T03:24:34;9.13;;;5.55;;
23148;SDS011;11743;51.228;22.498;2022-09-17T03:24:58;8.25;;;5.40;;
23148;SDS011;11743;51.228;22.498;2022-09-17T03:25:20;7.60;;;5.50;;
23148;SDS011;11743;51.228;22.498;2022-09-17T03:25:42;8.73;;;5.82;;
23148;SDS011;11743;51.228;22.498;2022-09-17T03:26:04;8.65;;;5.78;;
23148;SDS011;11743;51.228;22.498;2022-09-17T03:26:25;8.30;;;5.85;;
23148;SDS011;11743;51.228;22.498;2022-09-17T03:26:47;7.43;;;5.80;;
23148;SDS011;11743;51.228;22.498;2022-09-17T03:27:09;7.30;;;5.78;;
23148;SDS011;11743;51.228;22.498;2022-09-17T03:27:31;7.30;;;5.68;;
23148;SDS011;11743;51.228;22.498;2022-09-17T03:27:53;8.93;;;5.53;;
23148;SDS011;11743;51.228;22.498;2022-09-17T03:28:15;10.75;;;5.70;;